createdAt,value
2023-03-04T00:00:05.313Z,99783.22
2023-03-04T00:01:11.773Z,99784.69
2023-03-04T00:02:14.358Z,99785.44
2023-03-04T00:03:16.422Z,99781.53
2023-03-04T00:04:18.467Z,99787.56
2023-03-04T00:05:20.399Z,99790.22
2023-03-04T00:06:22.313Z,99787.25
2023-03-04T00:07:24.514Z,99785.84
2023-03-04T00:08:26.361Z,99782.06
2023-03-04T00:09:28.228Z,99782.94
2023-03-04T00:10:30.155Z,99793.16
2023-03-04T00:11:33.013Z,99790.53
2023-03-04T00:12:35.248Z,99789.38
2023-03-04T00:13:37.105Z,99781.66
2023-03-04T00:14:39.058Z,99788.66
2023-03-04T00:15:40.944Z,99795.00
2023-03-04T00:16:42.862Z,99788.37
2023-03-04T00:17:46.226Z,99789.38
2023-03-04T00:18:48.067Z,99788.37
2023-03-04T00:19:49.973Z,99792.91
2023-03-04T00:20:51.963Z,99789.19
2023-03-04T00:21:53.807Z,99786.44
2023-03-04T00:22:56.006Z,99794.31
2023-03-04T00:23:58.027Z,99792.91
2023-03-04T00:24:59.936Z,99782.78
2023-03-04T00:26:01.793Z,99790.13
2023-03-04T00:27:03.670Z,99784.97
2023-03-04T00:28:05.857Z,99780.13
2023-03-04T00:29:07.695Z,99781.09
2023-03-04T00:30:10.267Z,99778.38
2023-03-04T00:31:12.466Z,99777.63
2023-03-04T00:32:16.245Z,99773.37
2023-03-04T00:33:18.460Z,99777.12
2023-03-04T00:34:20.883Z,99778.81
2023-03-04T00:35:22.786Z,99780.97
2023-03-04T00:36:25.384Z,99772.16
2023-03-04T00:37:27.261Z,99771.03
2023-03-04T00:38:29.799Z,99776.50
2023-03-04T00:39:31.639Z,99772.41
2023-03-04T00:40:33.592Z,99779.69
2023-03-04T00:41:35.520Z,99781.16
2023-03-04T00:42:38.262Z,99781.16
2023-03-04T00:43:40.508Z,99780.06
2023-03-04T00:44:42.537Z,99779.03
2023-03-04T00:45:44.586Z,99780.19
2023-03-04T00:46:46.483Z,99773.94
2023-03-04T00:47:49.203Z,99769.09
2023-03-04T00:48:51.435Z,99768.38
2023-03-04T00:49:53.382Z,99769.28
2023-03-04T00:50:55.286Z,99760.66
2023-03-04T00:51:57.177Z,99764.41
2023-03-04T00:52:59.213Z,99769.84
2023-03-04T00:54:01.496Z,99761.56
2023-03-04T00:55:03.781Z,99764.13
2023-03-04T00:56:06.095Z,99760.41
2023-03-04T00:57:07.983Z,99765.66
2023-03-04T00:58:09.867Z,99757.03
2023-03-04T00:59:11.999Z,99758.38
2023-03-04T01:00:14.744Z,99763.03
2023-03-04T01:01:16.701Z,99753.59
2023-03-04T01:02:18.769Z,99758.72
2023-03-04T01:03:20.789Z,99754.63
2023-03-04T01:04:22.962Z,99758.50
2023-03-04T01:05:24.831Z,99756.13
2023-03-04T01:06:26.739Z,99763.97
2023-03-04T01:07:28.726Z,99757.50
2023-03-04T01:08:30.668Z,99758.50
2023-03-04T01:09:32.818Z,99752.47
2023-03-04T01:10:34.716Z,99756.63
2023-03-04T01:11:37.552Z,99751.66
2023-03-04T01:12:41.603Z,99750.63
2023-03-04T01:13:43.553Z,99753.53
2023-03-04T01:14:45.821Z,99748.03
2023-03-04T01:15:48.311Z,99752.06
2023-03-04T01:16:50.420Z,99745.53
2023-03-04T01:17:52.495Z,99742.91
2023-03-04T01:18:54.403Z,99745.69
2023-03-04T01:19:56.599Z,99746.53
2023-03-04T01:20:58.901Z,99741.41
2023-03-04T01:22:00.760Z,99741.41
2023-03-04T01:23:02.670Z,99742.16
2023-03-04T01:24:04.923Z,99745.09
2023-03-04T01:25:07.839Z,99743.25
2023-03-04T01:26:09.777Z,99750.03
2023-03-04T01:27:11.925Z,99748.44
2023-03-04T01:28:13.923Z,99747.47
2023-03-04T01:29:16.224Z,99752.06
2023-03-04T01:30:18.602Z,99743.84
2023-03-04T01:31:20.447Z,99745.75
2023-03-04T01:32:22.401Z,99743.97
2023-03-04T01:33:24.395Z,99737.06
2023-03-04T01:34:26.310Z,99739.47
2023-03-04T01:35:28.544Z,99738.84
2023-03-04T01:36:32.097Z,99737.53
2023-03-04T01:37:34.024Z,99741.28
2023-03-04T01:38:35.911Z,99735.78
2023-03-04T01:39:37.817Z,99731.66
2023-03-04T01:40:40.353Z,99721.41
2023-03-04T01:41:43.520Z,99732.03
2023-03-04T01:42:46.052Z,99723.59
2023-03-04T01:43:47.990Z,99719.22
2023-03-04T01:44:51.676Z,99718.97
2023-03-04T01:45:55.794Z,99725.25
2023-03-04T01:46:57.807Z,99723.34
2023-03-04T01:47:59.746Z,99730.41
2023-03-04T01:49:01.689Z,99725.78
2023-03-04T01:50:10.949Z,99724.09
2023-03-04T01:51:18.814Z,99731.38
2023-03-04T01:52:20.774Z,99721.72
2023-03-04T01:53:28.023Z,99719.03
2023-03-04T01:54:29.899Z,99719.06
2023-03-04T01:55:32.318Z,99716.34
2023-03-04T01:56:37.640Z,99712.31
2023-03-04T01:57:39.607Z,99714.25
2023-03-04T01:58:42.300Z,99712.63
2023-03-04T01:59:45.408Z,99715.12
2023-03-04T02:00:47.349Z,99706.28
2023-03-04T02:01:58.731Z,99708.78
2023-03-04T02:03:14.873Z,99705.56
2023-03-04T02:04:19.344Z,99708.94
2023-03-04T02:05:22.320Z,99712.59
2023-03-04T02:06:25.638Z,99707.03
2023-03-04T02:07:27.874Z,99712.81
2023-03-04T02:08:30.078Z,99705.69
2023-03-04T02:09:33.786Z,99714.91
2023-03-04T02:10:36.056Z,99716.25
2023-03-04T02:11:41.225Z,99708.06
2023-03-04T02:12:43.294Z,99704.50
2023-03-04T02:13:45.392Z,99704.91
2023-03-04T02:14:47.397Z,99699.19
2023-03-04T02:15:49.661Z,99703.72
2023-03-04T02:16:52.326Z,99693.44
2023-03-04T02:17:54.481Z,99697.00
2023-03-04T02:18:56.380Z,99693.41
2023-03-04T02:20:20.156Z,99691.44
2023-03-04T02:21:26.142Z,99691.97
2023-03-04T02:22:28.434Z,99692.47
2023-03-04T02:23:48.657Z,99691.22
2023-03-04T02:24:57.541Z,99696.47
2023-03-04T02:26:14.302Z,99689.31
2023-03-04T02:27:16.416Z,99688.47
2023-03-04T02:28:19.125Z,99684.50
2023-03-04T02:29:21.014Z,99690.28
2023-03-04T02:30:25.489Z,99693.16
2023-03-04T02:31:27.364Z,99691.38
2023-03-04T02:32:29.774Z,99688.87
2023-03-04T02:33:33.257Z,99683.91
2023-03-04T02:34:35.934Z,99682.50
2023-03-04T02:35:37.942Z,99682.78
2023-03-04T02:36:41.621Z,99688.31
2023-03-04T02:37:44.266Z,99687.34
2023-03-04T02:38:46.764Z,99690.97
2023-03-04T02:39:49.601Z,99684.72
2023-03-04T02:40:55.525Z,99680.69
2023-03-04T02:41:57.917Z,99673.75
2023-03-04T02:43:01.313Z,99674.69
2023-03-04T02:44:04.491Z,99683.13
2023-03-04T02:45:07.032Z,99675.78
2023-03-04T02:46:13.725Z,99674.41
2023-03-04T02:47:18.732Z,99675.19
2023-03-04T02:48:23.961Z,99674.69
2023-03-04T02:49:28.671Z,99670.47
2023-03-04T02:50:36.961Z,99675.16
2023-03-04T02:51:39.021Z,99672.47
2023-03-04T02:52:40.889Z,99675.47
2023-03-04T02:53:42.785Z,99667.38
2023-03-04T02:54:45.830Z,99666.56
2023-03-04T02:55:49.493Z,99663.31
2023-03-04T02:56:54.829Z,99658.16
2023-03-04T02:57:58.709Z,99656.81
2023-03-04T02:59:02.406Z,99662.81
2023-03-04T03:00:05.086Z,99658.69
2023-03-04T03:01:07.149Z,99652.03
2023-03-04T03:02:09.894Z,99655.00
2023-03-04T03:03:11.920Z,99655.69
2023-03-04T03:04:14.687Z,99650.22
2023-03-04T03:05:19.011Z,99658.84
2023-03-04T03:06:21.045Z,99654.34
2023-03-04T03:07:22.963Z,99656.34
2023-03-04T03:08:25.570Z,99661.97
2023-03-04T03:09:29.161Z,99668.25
2023-03-04T03:10:31.511Z,99663.97
2023-03-04T03:11:33.736Z,99662.72
2023-03-04T03:12:35.610Z,99660.56
2023-03-04T03:13:37.677Z,99655.72
2023-03-04T03:14:39.566Z,99651.97
2023-03-04T03:15:42.531Z,99661.19
2023-03-04T03:16:44.554Z,99657.81
2023-03-04T03:17:47.650Z,99656.31
2023-03-04T03:18:49.836Z,99652.50
2023-03-04T03:19:51.726Z,99646.84
2023-03-04T03:20:53.863Z,99651.31
2023-03-04T03:21:55.788Z,99652.13
2023-03-04T03:22:57.658Z,99647.25
2023-03-04T03:23:59.575Z,99647.44
2023-03-04T03:25:01.455Z,99648.25
2023-03-04T03:26:05.765Z,99641.75
2023-03-04T03:27:07.782Z,99639.97
2023-03-04T03:28:09.877Z,99648.47
2023-03-04T03:29:12.617Z,99641.06
2023-03-04T03:30:15.376Z,99637.34
2023-03-04T03:31:17.661Z,99640.91
2023-03-04T03:32:21.517Z,99638.06
2023-03-04T03:33:26.071Z,99641.28
2023-03-04T03:34:28.057Z,99643.94
2023-03-04T03:35:30.225Z,99646.81
2023-03-04T03:36:32.485Z,99633.25
2023-03-04T03:37:34.369Z,99632.25
2023-03-04T03:38:36.468Z,99635.56
2023-03-04T03:39:38.462Z,99639.72
2023-03-04T03:40:40.321Z,99640.91
2023-03-04T03:41:42.497Z,99643.37
2023-03-04T03:42:44.343Z,99639.84
2023-03-04T03:43:46.212Z,99635.53
2023-03-04T03:44:48.150Z,99633.81
2023-03-04T03:45:51.978Z,99640.19
2023-03-04T03:46:54.188Z,99638.28
2023-03-04T03:47:56.033Z,99631.53
2023-03-04T03:48:57.968Z,99631.91
2023-03-04T03:49:59.863Z,99638.00
2023-03-04T03:51:01.913Z,99637.88
2023-03-04T03:52:04.247Z,99634.06
2023-03-04T03:53:06.232Z,99630.38
2023-03-04T03:54:08.113Z,99635.81
2023-03-04T03:55:10.267Z,99628.63
2023-03-04T03:56:12.123Z,99631.19
2023-03-04T03:57:14.461Z,99629.59
2023-03-04T03:58:16.635Z,99631.28
2023-03-04T03:59:18.651Z,99634.78
2023-03-04T04:00:20.903Z,99635.06
2023-03-04T04:01:23.756Z,99633.47
2023-03-04T04:02:25.792Z,99626.69
2023-03-04T04:03:27.665Z,99633.19
2023-03-04T04:04:29.686Z,99637.13
2023-03-04T04:05:31.898Z,99634.94
2023-03-04T04:06:34.169Z,99625.75
2023-03-04T04:07:36.997Z,99627.06
2023-03-04T04:08:38.953Z,99633.94
2023-03-04T04:09:40.845Z,99630.41
2023-03-04T04:10:43.747Z,99628.56
2023-03-04T04:11:45.944Z,99628.63
2023-03-04T04:12:47.814Z,99627.94
2023-03-04T04:13:49.676Z,99624.84
2023-03-04T04:14:51.538Z,99629.56
2023-03-04T04:15:54.020Z,99639.12
2023-03-04T04:16:56.206Z,99631.44
2023-03-04T04:17:58.143Z,99633.34
2023-03-04T04:19:00.024Z,99636.16
2023-03-04T04:20:01.879Z,99630.78
2023-03-04T04:21:04.567Z,99631.19
2023-03-04T04:22:15.151Z,99632.66
2023-03-04T04:23:16.977Z,99635.50
2023-03-04T04:24:19.013Z,99632.41
2023-03-04T04:25:20.983Z,99634.31
2023-03-04T04:26:22.844Z,99634.81
2023-03-04T04:27:25.049Z,99636.72
2023-03-04T04:28:26.989Z,99640.22
2023-03-04T04:29:28.840Z,99636.88
2023-03-04T04:30:30.738Z,99633.47
2023-03-04T04:31:32.656Z,99630.50
2023-03-04T04:32:35.047Z,99631.59
2023-03-04T04:33:37.360Z,99630.78
2023-03-04T04:34:39.407Z,99628.34
2023-03-04T04:35:41.318Z,99626.59
2023-03-04T04:36:43.183Z,99629.72
2023-03-04T04:37:45.360Z,99639.16
2023-03-04T04:38:49.364Z,99629.72
2023-03-04T04:39:51.872Z,99630.00
2023-03-04T04:40:53.760Z,99636.16
2023-03-04T04:41:55.627Z,99634.31
2023-03-04T04:42:57.838Z,99632.16
2023-03-04T04:43:59.713Z,99628.37
2023-03-04T04:45:01.651Z,99636.97
2023-03-04T04:46:03.699Z,99635.22
2023-03-04T04:47:07.268Z,99636.56
2023-03-04T04:48:09.601Z,99633.75
2023-03-04T04:49:11.592Z,99633.47
2023-03-04T04:50:13.454Z,99630.78
2023-03-04T04:51:15.825Z,99628.37
2023-03-04T04:52:17.701Z,99629.31
2023-03-04T04:53:19.849Z,99624.56
2023-03-04T04:54:21.941Z,99624.06
2023-03-04T04:55:23.818Z,99625.91
2023-03-04T04:56:26.712Z,99623.75
2023-03-04T04:57:28.761Z,99619.44
2023-03-04T04:58:30.904Z,99627.00
2023-03-04T04:59:33.035Z,99625.38
2023-03-04T05:00:35.225Z,99630.63
2023-03-04T05:01:37.500Z,99625.38
2023-03-04T05:02:39.745Z,99624.56
2023-03-04T05:03:42.590Z,99619.97
2023-03-04T05:04:44.580Z,99627.66
2023-03-04T05:05:46.525Z,99627.00
2023-03-04T05:06:48.397Z,99627.81
2023-03-04T05:07:50.323Z,99633.34
2023-03-04T05:08:52.764Z,99623.66
2023-03-04T05:09:54.632Z,99627.69
2023-03-04T05:10:56.530Z,99632.12
2023-03-04T05:11:58.520Z,99626.87
2023-03-04T05:13:00.392Z,99636.44
2023-03-04T05:14:02.634Z,99633.91
2023-03-04T05:15:04.921Z,99630.94
2023-03-04T05:16:07.381Z,99633.19
2023-03-04T05:17:09.264Z,99628.03
2023-03-04T05:18:11.234Z,99638.28
2023-03-04T05:19:13.531Z,99637.38
2023-03-04T05:20:15.513Z,99636.16
2023-03-04T05:21:17.531Z,99641.69
2023-03-04T05:22:19.372Z,99633.63
2023-03-04T05:23:21.532Z,99637.28
2023-03-04T05:24:23.791Z,99639.03
2023-03-04T05:25:25.729Z,99640.50
2023-03-04T05:26:27.696Z,99639.56
2023-03-04T05:27:29.683Z,99633.34
2023-03-04T05:28:32.183Z,99638.06
2023-03-04T05:29:34.354Z,99638.88
2023-03-04T05:30:36.260Z,99641.16
2023-03-04T05:31:38.126Z,99642.09
2023-03-04T05:32:40.039Z,99637.91
2023-03-04T05:33:41.965Z,99635.91
2023-03-04T05:34:44.138Z,99642.63
2023-03-04T05:35:48.785Z,99639.12
2023-03-04T05:36:50.712Z,99640.63
2023-03-04T05:37:52.547Z,99646.41
2023-03-04T05:38:54.429Z,99640.75
2023-03-04T05:39:56.610Z,99644.53
2023-03-04T05:41:04.224Z,99653.56
2023-03-04T05:42:06.148Z,99646.38
2023-03-04T05:43:09.036Z,99634.09
2023-03-04T05:44:10.909Z,99642.63
2023-03-04T05:45:13.124Z,99638.88
2023-03-04T05:46:17.680Z,99639.69
2023-03-04T05:47:19.604Z,99644.53
2023-03-04T05:48:21.527Z,99643.69
2023-03-04T05:49:23.453Z,99642.19
2023-03-04T05:50:25.922Z,99645.38
2023-03-04T05:51:27.915Z,99638.84
2023-03-04T05:52:29.779Z,99646.09
2023-03-04T05:53:31.666Z,99642.37
2023-03-04T05:54:33.576Z,99641.19
2023-03-04T05:55:35.705Z,99651.25
2023-03-04T05:56:37.651Z,99641.69
2023-03-04T05:57:39.724Z,99649.09
2023-03-04T05:58:42.464Z,99649.94
2023-03-04T05:59:44.438Z,99649.41
2023-03-04T06:00:47.787Z,99646.50
2023-03-04T06:01:50.278Z,99647.50
2023-03-04T06:02:52.419Z,99647.50
2023-03-04T06:03:54.467Z,99642.03
2023-03-04T06:04:56.657Z,99637.69
2023-03-04T06:05:59.003Z,99650.66
2023-03-04T06:07:01.223Z,99654.56
2023-03-04T06:08:03.084Z,99650.25
2023-03-04T06:09:05.044Z,99652.13
2023-03-04T06:10:07.836Z,99654.22
2023-03-04T06:11:09.847Z,99659.78
2023-03-04T06:12:12.826Z,99660.63
2023-03-04T06:13:14.713Z,99658.41
2023-03-04T06:14:16.750Z,99659.81
2023-03-04T06:15:18.754Z,99663.13
2023-03-04T06:16:20.703Z,99661.41
2023-03-04T06:17:23.194Z,99667.09
2023-03-04T06:18:26.682Z,99661.09
2023-03-04T06:19:28.573Z,99659.91
2023-03-04T06:20:30.478Z,99656.59
2023-03-04T06:21:32.385Z,99659.84
2023-03-04T06:22:35.182Z,99649.84
2023-03-04T06:23:37.137Z,99654.88
2023-03-04T06:24:39.154Z,99652.88
2023-03-04T06:25:41.047Z,99652.28
2023-03-04T06:26:42.991Z,99654.12
2023-03-04T06:27:45.189Z,99654.38
2023-03-04T06:28:47.430Z,99654.03
2023-03-04T06:29:49.392Z,99653.56
2023-03-04T06:30:55.297Z,99659.72
2023-03-04T06:31:57.333Z,99656.44
2023-03-04T06:32:59.591Z,99654.16
2023-03-04T06:34:01.647Z,99661.47
2023-03-04T06:35:03.828Z,99663.91
2023-03-04T06:36:06.144Z,99666.28
2023-03-04T06:37:08.086Z,99655.66
2023-03-04T06:38:10.275Z,99668.59
2023-03-04T06:39:12.164Z,99669.44
2023-03-04T06:40:14.190Z,99670.19
2023-03-04T06:41:16.147Z,99668.53
2023-03-04T06:42:18.255Z,99667.28
2023-03-04T06:43:20.720Z,99669.19
2023-03-04T06:44:22.563Z,99669.56
2023-03-04T06:45:24.418Z,99670.94
2023-03-04T06:46:28.243Z,99668.28
2023-03-04T06:47:31.388Z,99668.34
2023-03-04T06:48:33.897Z,99667.59
2023-03-04T06:49:35.778Z,99676.38
2023-03-04T06:50:40.086Z,99668.03
2023-03-04T06:51:41.942Z,99666.06
2023-03-04T06:52:43.848Z,99668.88
2023-03-04T06:53:46.252Z,99665.28
2023-03-04T06:54:48.154Z,99668.19
2023-03-04T06:55:50.537Z,99667.41
2023-03-04T06:56:52.397Z,99663.53
2023-03-04T06:57:54.261Z,99666.41
2023-03-04T06:58:56.550Z,99668.72
2023-03-04T06:59:58.393Z,99669.91
2023-03-04T07:01:23.773Z,99664.59
2023-03-04T07:02:25.693Z,99670.34
2023-03-04T07:03:27.561Z,99662.16
2023-03-04T07:04:29.920Z,99669.50
2023-03-04T07:05:31.905Z,99665.25
2023-03-04T07:06:33.807Z,99663.22
2023-03-04T07:07:35.746Z,99667.94
2023-03-04T07:08:37.859Z,99663.84
2023-03-04T07:09:40.287Z,99663.91
2023-03-04T07:10:42.298Z,99655.69
2023-03-04T07:11:44.703Z,99664.00
2023-03-04T07:12:46.803Z,99668.47
2023-03-04T07:13:49.726Z,99670.09
2023-03-04T07:14:51.927Z,99669.31
2023-03-04T07:15:54.277Z,99672.22
2023-03-04T07:16:57.280Z,99670.84
2023-03-04T07:17:59.228Z,99663.81
2023-03-04T07:19:01.399Z,99664.38
2023-03-04T07:20:05.199Z,99671.13
2023-03-04T07:21:08.354Z,99666.13
2023-03-04T07:22:10.625Z,99668.28
2023-03-04T07:23:12.728Z,99674.72
2023-03-04T07:24:14.775Z,99668.53
2023-03-04T07:25:17.997Z,99662.59
2023-03-04T07:26:20.097Z,99663.41
2023-03-04T07:27:22.035Z,99665.37
2023-03-04T07:28:23.940Z,99663.59
2023-03-04T07:29:25.904Z,99665.81
2023-03-04T07:30:28.177Z,99663.81
2023-03-04T07:31:32.791Z,99658.53
2023-03-04T07:32:35.805Z,99663.72
2023-03-04T07:33:37.850Z,99653.69
2023-03-04T07:34:39.709Z,99654.44
2023-03-04T07:35:42.221Z,99650.78
2023-03-04T07:36:44.523Z,99657.19
2023-03-04T07:37:46.405Z,99649.59
2023-03-04T07:38:49.955Z,99645.22
2023-03-04T07:39:51.828Z,99653.88
2023-03-04T07:40:59.082Z,99645.78
2023-03-04T07:42:01.089Z,99648.38
2023-03-04T07:43:03.553Z,99656.19
2023-03-04T07:44:07.192Z,99651.88
2023-03-04T07:45:09.895Z,99653.19
2023-03-04T07:46:12.816Z,99654.62
2023-03-04T07:47:14.874Z,99654.72
2023-03-04T07:48:16.947Z,99654.66
2023-03-04T07:49:18.845Z,99656.13
2023-03-04T07:50:22.460Z,99653.97
2023-03-04T07:51:26.198Z,99652.19
2023-03-04T07:52:28.070Z,99648.75
2023-03-04T07:53:30.037Z,99657.56
2023-03-04T07:54:32.158Z,99647.56
2023-03-04T07:55:34.375Z,99659.19
2023-03-04T07:56:36.751Z,99650.28
2023-03-04T07:57:39.686Z,99657.13
2023-03-04T07:58:41.744Z,99653.06
2023-03-04T07:59:43.633Z,99653.47
2023-03-04T08:00:45.769Z,99652.47
2023-03-04T08:01:48.178Z,99657.94
2023-03-04T08:02:50.167Z,99655.53
2023-03-04T08:03:52.392Z,99650.25
2023-03-04T08:04:54.258Z,99652.69
2023-03-04T08:05:56.150Z,99640.88
2023-03-04T08:06:58.340Z,99648.81
2023-03-04T08:08:00.223Z,99652.13
2023-03-04T08:09:06.459Z,99649.75
2023-03-04T08:10:08.760Z,99652.16
2023-03-04T08:11:13.831Z,99655.63
2023-03-04T08:12:16.230Z,99648.69
2023-03-04T08:13:18.129Z,99654.06
2023-03-04T08:14:20.063Z,99649.38
2023-03-04T08:15:21.931Z,99647.00
2023-03-04T08:16:24.732Z,99650.00
2023-03-04T08:17:29.671Z,99654.19
2023-03-04T08:18:31.729Z,99649.75
2023-03-04T08:19:33.604Z,99646.00
2023-03-04T08:20:35.849Z,99650.50
2023-03-04T08:21:37.914Z,99643.44
2023-03-04T08:22:40.197Z,99643.37
2023-03-04T08:23:43.391Z,99637.59
2023-03-04T08:24:45.379Z,99643.69
2023-03-04T08:25:47.704Z,99643.59
2023-03-04T08:26:50.970Z,99639.12
2023-03-04T08:27:53.149Z,99638.56
2023-03-04T08:28:56.796Z,99644.41
2023-03-04T08:29:58.677Z,99643.56
2023-03-04T08:31:00.591Z,99639.16
2023-03-04T08:32:02.553Z,99646.09
2023-03-04T08:33:04.847Z,99638.00
2023-03-04T08:34:08.583Z,99638.03
2023-03-04T08:35:10.654Z,99640.25
2023-03-04T08:36:13.584Z,99634.94
2023-03-04T08:37:15.433Z,99641.59
2023-03-04T08:38:17.688Z,99631.03
2023-03-04T08:39:20.356Z,99633.44
2023-03-04T08:40:22.333Z,99630.59
2023-03-04T08:41:26.280Z,99634.87
2023-03-04T08:42:28.152Z,99632.94
2023-03-04T08:43:31.072Z,99635.72
2023-03-04T08:44:33.066Z,99632.75
2023-03-04T08:45:34.993Z,99625.22
2023-03-04T08:46:38.866Z,99631.28
2023-03-04T08:47:41.003Z,99623.16
2023-03-04T08:48:43.201Z,99625.31
2023-03-04T08:49:45.111Z,99623.56
2023-03-04T08:50:47.957Z,99626.16
2023-03-04T08:51:49.887Z,99623.12
2023-03-04T08:52:51.850Z,99623.56
2023-03-04T08:53:54.110Z,99619.78
2023-03-04T08:54:56.099Z,99615.50
2023-03-04T08:55:58.002Z,99604.00
2023-03-04T08:56:59.912Z,99612.44
2023-03-04T08:58:01.823Z,99618.72
2023-03-04T08:59:04.138Z,99617.31
2023-03-04T09:00:06.764Z,99608.53
2023-03-04T09:01:11.744Z,99611.47
2023-03-04T09:02:13.676Z,99604.97
2023-03-04T09:03:19.019Z,99609.91
2023-03-04T09:04:21.254Z,99603.91
2023-03-04T09:05:23.144Z,99605.84
2023-03-04T09:06:25.130Z,99592.56
2023-03-04T09:07:27.019Z,99605.66
2023-03-04T09:08:29.592Z,99594.34
2023-03-04T09:09:32.047Z,99597.06
2023-03-04T09:10:33.890Z,99604.25
2023-03-04T09:11:35.974Z,99601.53
2023-03-04T09:12:37.922Z,99594.06
2023-03-04T09:13:40.284Z,99593.06
2023-03-04T09:14:42.522Z,99594.06
2023-03-04T09:15:46.717Z,99596.47
2023-03-04T09:16:48.597Z,99588.78
2023-03-04T09:17:50.502Z,99599.66
2023-03-04T09:18:52.433Z,99598.94
2023-03-04T09:19:55.943Z,99598.59
2023-03-04T09:20:58.712Z,99588.66
2023-03-04T09:22:00.657Z,99592.84
2023-03-04T09:23:02.555Z,99592.56
2023-03-04T09:24:04.674Z,99596.78
2023-03-04T09:25:12.073Z,99589.84
2023-03-04T09:26:21.404Z,99586.78
2023-03-04T09:27:23.328Z,99595.56
2023-03-04T09:28:25.198Z,99592.09
2023-03-04T09:29:27.077Z,99591.47
2023-03-04T09:30:29.579Z,99583.66
2023-03-04T09:31:31.705Z,99592.72
2023-03-04T09:32:33.772Z,99589.13
2023-03-04T09:33:35.758Z,99583.03
2023-03-04T09:34:37.685Z,99588.81
2023-03-04T09:35:40.121Z,99576.97
2023-03-04T09:36:42.055Z,99580.16
2023-03-04T09:37:44.643Z,99578.47
2023-03-04T09:38:46.869Z,99578.03
2023-03-04T09:39:50.339Z,99579.09
2023-03-04T09:40:52.573Z,99580.06
2023-03-04T09:41:58.134Z,99581.50
2023-03-04T09:43:05.726Z,99579.00
2023-03-04T09:44:18.916Z,99582.22
2023-03-04T09:45:23.393Z,99568.69
2023-03-04T09:46:47.486Z,99582.78
2023-03-04T09:47:52.739Z,99570.00
2023-03-04T09:48:56.177Z,99570.12
2023-03-04T09:50:03.270Z,99573.78
2023-03-04T09:51:32.906Z,99567.53
2023-03-04T09:52:47.135Z,99575.25
2023-03-04T09:54:00.898Z,99568.44
2023-03-04T09:55:04.808Z,99561.41
2023-03-04T09:56:07.491Z,99567.00
2023-03-04T09:57:21.853Z,99563.31
2023-03-04T09:58:47.300Z,99561.72
2023-03-04T10:00:14.034Z,99557.72
2023-03-04T10:01:39.973Z,99554.62
2023-03-04T10:03:10.207Z,99556.34
2023-03-04T10:04:13.992Z,99555.25
2023-03-04T10:05:21.840Z,99553.44
2023-03-04T10:06:24.560Z,99548.28
2023-03-04T10:07:34.491Z,99556.47
2023-03-04T10:08:47.497Z,99554.75
2023-03-04T10:09:52.013Z,99555.72
2023-03-04T10:10:56.861Z,99554.84
2023-03-04T10:12:04.519Z,99550.31
2023-03-04T10:13:15.906Z,99543.94
2023-03-04T10:14:23.521Z,99554.34
2023-03-04T10:15:46.553Z,99549.19
2023-03-04T10:17:14.598Z,99548.50
2023-03-04T10:18:24.053Z,99550.19
2023-03-04T10:20:03.147Z,99540.06
2023-03-04T10:21:20.265Z,99546.91
2023-03-04T10:22:22.056Z,99544.91
2023-03-04T10:23:28.945Z,99536.66
2023-03-04T10:24:31.191Z,99540.19
2023-03-04T10:25:33.690Z,99543.97
2023-03-04T10:26:36.428Z,99543.22
2023-03-04T10:27:38.293Z,99533.22
2023-03-04T10:28:40.863Z,99534.47
2023-03-04T10:29:42.751Z,99535.28
2023-03-04T10:31:10.190Z,99529.81
2023-03-04T10:32:19.352Z,99533.78
2023-03-04T10:33:25.076Z,99532.41
2023-03-04T10:34:27.472Z,99527.56
2023-03-04T10:35:36.423Z,99522.94
2023-03-04T10:36:47.169Z,99533.41
2023-03-04T10:37:50.942Z,99524.94
2023-03-04T10:39:10.754Z,99525.62
2023-03-04T10:40:26.079Z,99518.06
2023-03-04T10:41:30.069Z,99521.09
2023-03-04T10:42:37.712Z,99520.31
2023-03-04T10:43:40.194Z,99511.38
2023-03-04T10:44:51.048Z,99513.53
2023-03-04T10:45:58.192Z,99515.56
2023-03-04T10:47:00.912Z,99518.03
2023-03-04T10:48:03.505Z,99505.31
2023-03-04T10:49:05.438Z,99506.91
2023-03-04T10:50:21.260Z,99507.72
2023-03-04T10:51:28.845Z,99506.09
2023-03-04T10:52:41.304Z,99510.16
2023-03-04T10:53:43.965Z,99505.81
2023-03-04T10:54:58.585Z,99502.12
2023-03-04T10:56:00.914Z,99494.97
2023-03-04T10:57:06.294Z,99491.59
2023-03-04T10:58:15.824Z,99495.31
2023-03-04T10:59:32.931Z,99505.19
2023-03-04T11:00:37.671Z,99495.59
2023-03-04T11:01:39.771Z,99496.63
2023-03-04T11:02:41.931Z,99500.13
2023-03-04T11:03:49.820Z,99491.94
2023-03-04T11:05:07.803Z,99486.53
2023-03-04T11:06:22.132Z,99491.22
2023-03-04T11:07:26.647Z,99491.44
2023-03-04T11:08:28.858Z,99490.44
2023-03-04T11:09:31.741Z,99488.78
2023-03-04T11:10:43.103Z,99488.16
2023-03-04T11:11:46.054Z,99489.91
2023-03-04T11:12:59.241Z,99489.47
2023-03-04T11:14:09.898Z,99485.25
2023-03-04T11:15:31.101Z,99482.06
2023-03-04T11:16:34.848Z,99484.13
2023-03-04T11:17:47.270Z,99484.72
2023-03-04T11:18:54.282Z,99482.84
2023-03-04T11:20:25.317Z,99485.09
2023-03-04T11:21:30.871Z,99486.00
2023-03-04T11:22:32.961Z,99483.97
2023-03-04T11:23:44.199Z,99488.97
2023-03-04T11:24:56.546Z,99487.81
2023-03-04T11:26:03.478Z,99481.50
2023-03-04T11:27:36.448Z,99484.69
2023-03-04T11:29:13.385Z,99481.50
2023-03-04T11:30:34.322Z,99469.13
2023-03-04T11:31:52.658Z,99474.44
2023-03-04T11:33:03.158Z,99475.22
2023-03-04T11:34:13.689Z,99473.72
2023-03-04T11:35:31.158Z,99472.56
2023-03-04T11:36:46.154Z,99469.59
2023-03-04T11:37:53.809Z,99465.19
2023-03-04T11:38:57.053Z,99454.22
2023-03-04T11:40:12.609Z,99462.34
2023-03-04T11:41:20.540Z,99460.84
2023-03-04T11:42:41.675Z,99465.34
2023-03-04T11:43:46.230Z,99455.28
2023-03-04T11:44:48.334Z,99463.44
2023-03-04T11:45:56.243Z,99442.69
2023-03-04T11:47:30.411Z,99456.50
2023-03-04T11:48:54.494Z,99448.31
2023-03-04T11:50:14.936Z,99443.19
2023-03-04T11:51:31.813Z,99446.81
2023-03-04T11:52:52.043Z,99447.72
2023-03-04T11:53:56.614Z,99448.56
2023-03-04T11:55:07.996Z,99452.22
2023-03-04T11:56:11.303Z,99441.47
2023-03-04T11:57:18.704Z,99447.53
2023-03-04T11:58:32.644Z,99437.72
2023-03-04T12:00:04.525Z,99445.66
2023-03-04T12:01:32.747Z,99435.91
2023-03-04T12:03:04.205Z,99440.34
2023-03-04T12:04:27.648Z,99441.34
2023-03-04T12:06:06.682Z,99443.91
2023-03-04T12:07:14.907Z,99438.78
2023-03-04T12:08:50.466Z,99427.66
2023-03-04T12:09:57.752Z,99424.78
2023-03-04T12:11:10.238Z,99428.41
2023-03-04T12:12:23.140Z,99427.31
2023-03-04T12:13:40.407Z,99425.75
2023-03-04T12:14:55.556Z,99427.28
2023-03-04T12:16:12.738Z,99430.34
2023-03-04T12:17:45.645Z,99426.34
2023-03-04T12:19:12.171Z,99416.91
2023-03-04T12:20:41.472Z,99424.63
2023-03-04T12:21:49.421Z,99411.50
2023-03-04T12:23:21.894Z,99401.13
2023-03-04T12:24:38.778Z,99415.69
2023-03-04T12:26:06.056Z,99408.47
2023-03-04T12:27:22.956Z,99408.59
2023-03-04T12:29:06.775Z,99401.41
2023-03-04T12:31:02.838Z,99401.09
2023-03-04T12:32:07.702Z,99397.44
2023-03-04T12:33:32.933Z,99402.38
2023-03-04T12:35:00.359Z,99398.53
2023-03-04T12:36:11.444Z,99394.69
2023-03-04T12:37:21.881Z,99394.75
2023-03-04T12:38:34.401Z,99390.84
2023-03-04T12:39:54.855Z,99391.09
2023-03-04T12:41:08.646Z,99389.16
2023-03-04T12:42:34.060Z,99384.66